Athens, Texas
Current Conditions -  °F | °C
As of 4:15 PM on Monday 26 Jan 2015 (Local Time) from KF44 Reporting Station
Clear Clear  
Wind Chill: 64°   Ceiling: Unl
Heat Index: 64°   Visibility: 10mi
Dew Point: 36°   Wind: 7mph
Humidity: 34%   Direction: 260°W
Pressure: 30.09"   Gusts: NA
Location:  32.2°N, 95.85°W
Report Text: KF44 262215Z AUTO 26006KT 10SM CLR 18/02 A3009 RMK AO2
Loading
Personal Weather Stations






























Interactive Weather Map New forecast layout! Learn more

10-Day Weather Forecast

Advertisements
Track Severe Weather on mobile